Time;durP1;ratioP1;P1;durP2;ratioP2;P2;SDS_P1;SDS_P2;PMS_P1;PMS_P2;Temp;Humidity;BMP_temperature;BMP_pressure;BME280_temperature;BME280_humidity;BME280_pressure;Samples;Min_cycle;Max_cycle;Signal;HPM_P1;HPM_P2
2022/04/21 00:04:07;;;;;;;12.65;7.63;;;;;;;6.37;100.00;101626.41;10347304;28;20495;-70
2022/04/21 00:09:07;;;;;;;11.07;7.10;;;;;;;6.34;100.00;101628.72;10346918;28;20038;-70
2022/04/21 00:14:08;;;;;;;12.95;7.35;;;;;;;5.72;100.00;101527.63;10348014;28;20566;-70
2022/04/21 00:19:08;;;;;;;14.10;8.30;;;;;;;6.31;100.00;101626.41;10348521;28;20030;-70
2022/04/21 00:24:09;;;;;;;14.30;8.02;;;;;;;6.24;100.00;101602.63;10345105;28;20034;-70
2022/04/21 00:29:09;;;;;;;12.07;8.27;;;;;;;6.14;100.00;101604.06;10346776;28;20042;-70
2022/04/21 00:34:10;;;;;;;16.23;8.75;;;;;;;5.99;100.00;101590.56;10346427;28;20387;-70
2022/04/21 00:39:11;;;;;;;13.57;9.30;;;;;;;5.90;100.00;101586.31;10347872;28;20030;-69
2022/04/21 00:44:11;;;;;;;15.88;8.95;;;;;;;5.74;100.00;101582.06;10343283;28;20034;-70
2022/04/21 00:49:12;;;;;;;17.90;10.73;;;;;;;5.66;100.00;101586.66;10345270;28;20038;-70
2022/04/21 00:54:13;;;;;;;16.38;9.27;;;;;;;5.60;100.00;101592.09;10343454;28;20030;-70
2022/04/21 00:59:14;;;;;;;20.88;11.20;;;;;;;5.53;100.00;101572.09;10346005;28;20037;-70
2022/04/21 01:04:14;;;;;;;15.18;10.30;;;;;;;5.42;100.00;101562.63;10303996;28;20043;-70
2022/04/21 01:09:15;;;;;;;15.02;10.05;;;;;;;5.73;100.00;101591.31;10320523;28;20031;-70
2022/04/21 01:14:15;;;;;;;17.77;10.00;;;;;;;5.76;100.00;101582.69;10306095;28;20047;-70
2022/04/21 01:19:16;;;;;;;15.95;9.57;;;;;;;5.76;100.00;101597.19;10305742;28;20043;-70
2022/04/21 01:24:16;;;;;;;18.20;10.13;;;;;;;5.74;100.00;101593.81;10312598;28;20035;-70
2022/04/21 01:29:17;;;;;;;16.77;9.57;;;;;;;5.56;100.00;101575.28;10345511;28;20031;-70
2022/04/21 01:34:17;;;;;;;15.88;9.80;;;;;;;5.57;100.00;101587.88;10344740;28;20037;-70
2022/04/21 01:44:37;;;;;;;18.70;10.88;;;;;;;5.43;100.00;101572.47;10305974;28;20499;-70
2022/04/21 01:49:38;;;;;;;15.98;9.93;;;;;;;5.39;100.00;101580.22;10319202;28;20031;-70
2022/04/21 01:54:38;;;;;;;19.33;12.00;;;;;;;5.28;100.00;101561.69;10344711;28;20089;-70
2022/04/21 01:59:39;;;;;;;21.42;11.60;;;;;;;5.36;100.00;101572.44;10328694;28;20018;-70
2022/04/21 02:04:39;;;;;;;18.33;10.65;;;;;;;5.40;100.00;101586.56;10345765;28;20042;-70
2022/04/21 02:09:40;;;;;;;18.55;10.98;;;;;;;5.21;100.00;101544.47;10344367;28;20022;-70
2022/04/21 02:14:41;;;;;;;16.95;10.65;;;;;;;5.34;100.00;101568.25;10345613;28;20050;-70
2022/04/21 02:19:41;;;;;;;21.70;11.50;;;;;;;5.35;100.00;101573.47;10320222;28;20046;-69
2022/04/21 02:24:42;;;;;;;17.30;9.85;;;;;;;5.37;100.00;101571.38;10295952;28;20034;-70
2022/04/21 02:29:42;;;;;;;17.10;10.75;;;;;;;5.25;100.00;101551.19;10312675;28;20556;-70
2022/04/21 02:34:43;;;;;;;19.50;10.65;;;;;;;5.16;100.00;101541.47;10310788;28;20035;-70
2022/04/21 02:39:43;;;;;;;16.98;8.90;;;;;;;5.21;100.00;101552.66;10310904;28;20045;-70
2022/04/21 02:44:44;;;;;;;18.15;9.95;;;;;;;5.09;100.00;101546.91;10341286;28;20071;-70
2022/04/21 02:49:46;;;;;;;13.98;8.70;;;;;;;5.05;100.00;101545.63;10351207;28;20035;-70
2022/04/21 03:00:06;;;;;;;14.75;8.38;;;;;;;5.03;100.00;101554.00;10351590;28;20471;-70
2022/04/21 03:05:07;;;;;;;15.75;8.75;;;;;;;5.08;100.00;101566.22;10333374;28;20053;-70
2022/04/21 03:10:08;;;;;;;15.75;8.88;;;;;;;4.91;100.00;101555.59;10332782;28;20026;-70
2022/04/21 03:15:11;;;;;;;17.75;9.30;;;;;;;4.80;100.00;101550.72;10349487;28;20058;-70
2022/04/21 03:24:18;;;;;;;14.95;9.52;;;;;;;4.06;100.00;101439.44;10350246;28;20053;-70
2022/04/21 03:25:33;;;;;;;15.60;9.25;;;;;;;4.69;100.00;101545.81;10349596;28;20038;-70
2022/04/21 03:30:34;;;;;;;13.45;9.05;;;;;;;4.50;100.00;101534.53;10348626;28;20038;-70
2022/04/21 03:35:35;;;;;;;15.45;9.45;;;;;;;4.55;100.00;101550.34;10350224;28;20027;-70
2022/04/21 03:40:35;;;;;;;16.35;10.07;;;;;;;4.39;100.00;101546.84;10347977;28;20042;-70
2022/04/21 03:45:36;;;;;;;17.08;8.82;;;;;;;4.04;100.00;101502.28;10347912;28;20042;-70
2022/04/21 03:50:36;;;;;;;15.00;9.55;;;;;;;4.15;100.00;101542.63;10349760;28;20038;-69
2022/04/21 03:55:36;;;;;;;14.63;9.02;;;;;;;3.62;100.00;101477.59;10348424;28;20038;-71
2022/04/21 04:00:37;;;;;;;18.42;10.65;;;;;;;4.03;100.00;101564.13;10347775;28;20057;-70
2022/04/21 04:05:37;;;;;;;17.55;9.60;;;;;;;3.87;100.00;101547.19;10347674;28;20046;-69
2022/04/21 04:10:53;;;;;;;14.70;9.98;;;;;;;3.93;100.00;101573.66;10330795;28;20027;-70
2022/04/21 04:15:54;;;;;;;16.40;9.57;;;;;;;3.82;100.00;101578.59;10307629;28;20483;-70
2022/04/21 04:20:55;;;;;;;18.10;9.80;;;;;;;3.71;100.00;101560.00;10323021;28;20070;-70
2022/04/21 04:25:55;;;;;;;17.13;9.57;;;;;;;3.64;100.00;101572.72;10323004;28;20031;-70
2022/04/21 04:30:56;;;;;;;20.40;11.25;;;;;;;3.65;100.00;101577.09;10322429;28;20479;-70
2022/04/21 04:35:56;;;;;;;17.73;10.48;;;;;;;3.62;100.00;101581.06;10306466;28;20039;-70
2022/04/21 04:42:15;;;;;;;17.52;9.40;;;;;;;3.54;100.00;101581.16;10333818;28;20042;-70
2022/04/21 04:46:35;;;;;;;19.02;9.88;;;;;;;3.64;100.00;101589.06;10346035;28;20039;-70
2022/04/21 04:51:41;;;;;;;15.25;9.70;;;;;;;3.66;100.00;101580.66;10347154;28;20116;-70
2022/04/21 04:56:43;;;;;;;18.17;10.70;;;;;;;3.72;100.00;101578.03;10347001;28;20026;-70
2022/04/21 05:01:45;;;;;;;16.83;10.43;;;;;;;3.92;100.00;101582.88;10345226;28;20045;-70
2022/04/21 05:06:50;;;;;;;18.95;11.65;;;;;;;3.98;100.00;101563.03;10345773;28;20042;-70
2022/04/21 05:11:52;;;;;;;18.92;10.40;;;;;;;3.91;100.00;101527.53;10317754;28;20041;-70
2022/04/21 05:16:53;;;;;;;20.40;10.70;;;;;;;4.33;100.00;101574.06;10306128;28;20051;-70
2022/04/21 05:21:54;;;;;;;15.65;10.15;;;;;;;4.43;100.00;101577.28;10304905;28;20577;-70
2022/04/21 05:26:54;;;;;;;17.50;9.32;;;;;;;4.50;100.00;101580.91;10287872;28;20437;-70
2022/04/21 05:32:02;;;;;;;18.83;11.75;;;;;;;4.58;100.00;101572.56;10306597;28;20546;-70
2022/04/21 05:37:03;;;;;;;15.20;9.25;;;;;;;4.72;100.00;101573.53;10305546;28;20490;-70
2022/04/21 05:42:04;;;;;;;17.42;9.60;;;;;;;5.02;100.00;101573.31;10305603;28;20046;-70
2022/04/21 05:47:05;;;;;;;12.93;8.48;;;;;;;5.45;100.00;101571.22;10353787;28;20062;-71
2022/04/21 05:52:06;;;;;;;21.65;9.20;;;;;;;5.85;100.00;101563.19;10345620;28;20031;-71
2022/04/21 05:57:06;;;;;;;13.95;7.90;;;;;;;6.36;100.00;101571.91;10332672;28;20546;-70
2022/04/21 06:02:07;;;;;;;13.27;8.70;;;;;;;6.69;100.00;101563.69;10354242;28;20048;-70
2022/04/21 06:07:07;;;;;;;10.77;6.72;;;;;;;7.10;100.00;101569.97;10354348;28;20049;-71
2022/04/21 06:12:09;;;;;;;9.75;6.60;;;;;;;7.40;100.00;101565.66;10346454;28;20038;-70
2022/04/21 06:17:09;;;;;;;9.60;5.82;;;;;;;7.75;100.00;101569.94;10311719;28;20057;-71
2022/04/21 06:22:10;;;;;;;13.15;6.10;;;;;;;8.03;100.00;101564.94;10327116;28;20111;-71
2022/04/21 06:27:10;;;;;;;10.70;5.78;;;;;;;8.35;100.00;101550.34;10327196;28;20038;-70
2022/04/21 06:32:11;;;;;;;11.65;5.13;;;;;;;8.67;100.00;101554.75;10311038;28;20031;-70
2022/04/21 06:37:11;;;;;;;7.45;4.70;;;;;;;8.89;100.00;101546.13;10311553;28;20094;-70
2022/04/21 06:42:12;;;;;;;8.27;5.57;;;;;;;8.96;100.00;101513.09;10310550;28;20039;-71
2022/04/21 06:52:32;;;;;;;6.82;4.82;;;;;;;9.99;100.00;101555.34;10334624;28;20089;-70
2022/04/21 06:57:32;;;;;;;7.35;5.15;;;;;;;10.23;100.00;101546.09;10310339;28;20031;-71
2022/04/21 07:02:37;;;;;;;6.60;3.80;;;;;;;10.56;100.00;101560.41;10326665;28;20026;-71
2022/04/21 07:07:39;;;;;;;7.85;3.65;;;;;;;10.78;100.00;101550.50;10325874;28;20058;-71
2022/04/21 07:12:39;;;;;;;5.18;3.60;;;;;;;10.87;100.00;101545.47;10307868;28;20134;-70
2022/04/21 07:17:40;;;;;;;6.75;4.05;;;;;;;11.11;100.00;101558.16;10308069;28;20193;-70
2022/04/21 07:22:41;;;;;;;10.20;4.03;;;;;;;11.17;100.00;101548.09;10308849;28;20046;-71
2022/04/21 07:27:41;;;;;;;6.75;3.47;;;;;;;11.41;100.00;101557.16;10347822;28;20025;-71
2022/04/21 07:32:44;;;;;;;5.72;3.28;;;;;;;11.51;100.00;101540.81;10389271;28;20548;-71
2022/04/21 07:37:44;;;;;;;5.95;3.47;;;;;;;11.69;100.00;101558.25;10372652;28;20030;-72
2022/04/21 07:42:45;;;;;;;3.33;2.38;;;;;;;11.79;97.21;101552.94;10379563;28;20125;-71
2022/04/21 07:47:45;;;;;;;5.88;2.53;;;;;;;11.85;95.79;101535.41;10386501;28;20042;-71
2022/04/21 07:58:05;;;;;;;3.67;2.15;;;;;;;12.27;88.35;101515.75;10387485;28;20040;-71
2022/04/21 08:03:06;;;;;;;3.50;2.03;;;;;;;12.29;86.43;101519.13;10371777;28;20036;-70
2022/04/21 08:08:10;;;;;;;3.65;2.28;;;;;;;12.49;84.83;101506.75;10387149;28;20037;-71
2022/04/21 08:13:15;;;;;;;3.63;2.28;;;;;;;12.69;87.15;101534.69;10383351;28;20034;-71
2022/04/21 08:18:16;;;;;;;4.43;2.03;;;;;;;12.87;85.42;101532.75;10381254;28;20484;-71
2022/04/21 08:23:16;;;;;;;3.47;2.35;;;;;;;12.87;84.12;101513.41;10388245;28;20032;-71
2022/04/21 08:33:37;;;;;;;5.38;2.28;;;;;;;13.36;83.38;101516.31;10383767;28;20037;-71
2022/04/21 08:38:37;;;;;;;6.07;3.03;;;;;;;13.60;82.46;101516.03;10382781;28;20029;-71
2022/04/21 08:43:37;;;;;;;5.60;2.33;;;;;;;13.84;80.18;101517.41;10384585;28;20045;-71
2022/04/21 08:48:38;;;;;;;7.05;2.33;;;;;;;14.08;79.00;101506.03;10370933;28;20049;-71
2022/04/21 08:53:39;;;;;;;5.00;2.42;;;;;;;14.28;78.13;101505.34;10386534;28;20089;-71
2022/04/21 08:58:40;;;;;;;4.32;2.88;;;;;;;14.42;78.62;101491.91;10345081;28;20026;-68
2022/04/21 09:03:40;;;;;;;3.70;2.53;;;;;;;14.50;78.23;101496.97;10342270;28;20463;-70
2022/04/21 09:08:41;;;;;;;6.30;2.65;;;;;;;14.77;77.97;101509.94;10343416;28;20027;-71
2022/04/21 09:13:43;;;;;;;2.83;2.15;;;;;;;14.81;74.97;101508.28;10343378;28;20039;-72
2022/04/21 09:18:45;;;;;;;9.13;2.45;;;;;;;14.91;75.21;101489.78;10343832;28;20046;-69
2022/04/21 09:23:47;;;;;;;5.35;2.40;;;;;;;15.08;73.20;101495.13;10344273;28;20472;-71
2022/04/21 09:28:54;;;;;;;5.60;2.75;;;;;;;14.91;71.30;101473.16;10344743;28;20058;-70
2022/04/21 09:33:55;;;;;;;6.03;2.65;;;;;;;15.06;72.11;101469.63;10352022;28;20038;-71
2022/04/21 09:38:59;;;;;;;6.80;2.67;;;;;;;15.33;72.86;101485.25;10351598;28;20026;-72
2022/04/21 09:49:35;;;;;;;3.35;2.25;;;;;;;15.82;70.28;101462.69;10351433;28;20053;-72
2022/04/21 09:54:36;;;;;;;6.30;2.33;;;;;;;15.87;68.90;101456.28;10353448;28;20030;-72
2022/04/21 09:59:37;;;;;;;4.60;2.22;;;;;;;15.81;68.26;101437.97;10352703;28;20030;-72
2022/04/21 10:04:39;;;;;;;4.00;2.25;;;;;;;15.97;67.85;101447.16;10351857;28;20046;-71
2022/04/21 10:09:40;;;;;;;4.10;1.88;;;;;;;16.14;67.90;101436.59;10320180;28;20061;-72
2022/04/21 10:14:40;;;;;;;6.60;2.28;;;;;;;16.47;66.15;101437.09;10326352;28;20054;-72
2022/04/21 10:19:41;;;;;;;8.45;2.20;;;;;;;16.73;65.44;101435.13;10327516;28;20042;-72
2022/04/21 10:24:43;;;;;;;4.28;2.63;;;;;;;16.90;65.29;101426.47;10311658;28;20454;-71
2022/04/21 10:29:50;;;;;;;2.78;1.98;;;;;;;17.21;62.79;101426.34;10310912;28;20057;-70
2022/04/21 10:34:56;;;;;;;6.25;2.03;;;;;;;17.04;61.31;101396.94;10326814;28;20035;-71
2022/04/21 10:40:07;;;;;;;3.33;1.75;;;;;;;16.99;62.76;101407.25;10326253;28;20041;-70
2022/04/21 10:45:14;;;;;;;3.25;1.63;;;;;;;17.20;62.76;101399.63;10325119;28;20061;-71
2022/04/21 10:50:19;;;;;;;4.75;2.10;;;;;;;17.21;61.09;101384.63;10348886;28;20057;-70
2022/04/21 11:00:38;;;;;;;4.43;2.42;;;;;;;17.52;61.86;101383.28;10350480;28;20038;-71
2022/04/21 11:05:39;;;;;;;5.55;2.30;;;;;;;17.52;59.78;101372.16;10372514;28;20053;-71
2022/04/21 11:10:45;;;;;;;5.97;2.35;;;;;;;17.67;60.61;101387.09;10390648;28;20037;-70
2022/04/21 11:15:53;;;;;;;3.50;2.13;;;;;;;17.42;60.37;101388.94;10352775;28;20046;-71
2022/04/21 11:21:26;;;;;;;4.68;2.75;;;;;;;16.96;62.86;101346.63;10388910;28;20042;-72
2022/04/21 11:26:28;;;;;;;4.50;2.35;;;;;;;17.23;61.99;101346.19;10388739;28;20054;-71
2022/04/21 11:31:29;;;;;;;5.32;2.22;;;;;;;18.03;60.99;101384.91;10388760;28;20030;-71
2022/04/21 11:36:36;;;;;;;7.53;3.00;;;;;;;18.40;59.49;101363.06;10388547;28;20034;-70
2022/04/21 11:41:44;;;;;;;4.10;2.28;;;;;;;18.57;58.58;101369.03;10381346;28;20073;-71
2022/04/21 11:46:44;;;;;;;6.55;2.38;;;;;;;18.20;59.17;101392.81;10383375;28;20303;-71
2022/04/21 11:51:45;;;;;;;4.93;2.42;;;;;;;18.21;57.08;101377.78;10371495;28;20034;-69
2022/04/21 11:56:49;;;;;;;7.35;2.65;;;;;;;18.28;59.10;101361.53;10353389;28;20038;-69
2022/04/21 12:07:18;;;;;;;6.15;2.95;;;;;;;18.73;58.14;101373.28;10387406;28;20030;-72
2022/04/21 12:12:20;;;;;;;4.68;2.55;;;;;;;19.26;57.68;101351.97;10362406;28;20401;-70
2022/04/21 12:17:21;;;;;;;5.40;3.03;;;;;;;20.88;55.51;101354.19;10344139;28;20035;-68
2022/04/21 12:22:30;;;;;;;4.20;2.70;;;;;;;21.85;52.75;101335.13;10345994;28;20078;-68
2022/04/21 12:27:36;;;;;;;6.75;2.67;;;;;;;21.71;52.04;101323.16;10344465;28;20035;-70
2022/04/21 12:32:40;;;;;;;;;;;;;;;22.24;50.56;101332.72;10345212;28;20026;-70
2022/04/21 12:37:42;;;;;;;3.20;2.63;;;;;;;22.44;49.13;101314.50;10344202;28;19921;-70
2022/04/21 12:42:45;;;;;;;5.53;3.38;;;;;;;21.29;49.91;101311.25;10344272;28;20172;-69
2022/04/21 12:47:46;;;;;;;4.03;3.63;;;;;;;21.56;49.78;101311.19;10343566;28;20121;-69
2022/04/21 12:52:50;;;;;;;4.32;3.17;;;;;;;21.50;51.85;101314.44;10346071;28;20029;-69
2022/04/21 12:58:01;;;;;;;4.82;3.65;;;;;;;21.36;50.41;101287.28;10347401;28;20101;-69
2022/04/21 13:03:02;;;;;;;3.75;3.35;;;;;;;22.17;50.36;101291.09;10346386;28;20098;-71
2022/04/21 13:08:03;;;;;;;9.52;4.07;;;;;;;22.30;48.81;101278.16;10344402;28;20050;-72
2022/04/21 13:13:03;;;;;;;7.20;3.55;;;;;;;22.62;48.48;101285.34;10382144;28;20037;-71
2022/04/21 13:18:04;;;;;;;7.53;4.22;;;;;;;22.93;47.54;101276.81;10384823;28;20069;-70
2022/04/21 13:23:04;;;;;;;11.00;4.38;;;;;;;23.14;48.13;101288.25;10386162;28;20042;-70
2022/04/21 13:28:05;;;;;;;11.32;3.78;;;;;;;23.30;47.53;101276.53;10386269;28;20077;-72
2022/04/21 13:33:24;;;;;;;5.70;3.90;;;;;;;22.80;46.69;101266.56;10386159;28;20045;-73
2022/04/21 13:38:24;;;;;;;5.88;4.00;;;;;;;22.65;48.13;101279.06;10381702;28;20044;-70
2022/04/21 13:43:26;;;;;;;4.95;4.43;;;;;;;22.45;48.28;101218.81;10355096;28;20043;-71
2022/04/21 13:48:27;;;;;;;6.32;4.00;;;;;;;22.89;47.26;101267.41;10344038;28;20054;-70
2022/04/21 13:53:27;;;;;;;6.25;4.95;;;;;;;22.84;49.08;101275.16;10344712;28;20026;-71
2022/04/21 13:58:27;;;;;;;6.95;4.85;;;;;;;22.99;48.31;101263.47;10343511;28;20031;-71
2022/04/21 14:03:28;;;;;;;4.82;4.38;;;;;;;22.87;47.91;101268.88;10342599;28;20038;-71
2022/04/21 14:08:29;;;;;;;7.57;4.55;;;;;;;22.41;48.50;101265.50;10342063;28;20042;-71
2022/04/21 14:13:30;;;;;;;9.65;5.45;;;;;;;21.50;48.27;101250.84;10341855;28;20533;-71
2022/04/21 14:18:30;;;;;;;9.57;5.43;;;;;;;21.90;49.77;101256.50;10347114;28;20438;-69
2022/04/21 14:23:36;;;;;;;9.57;4.75;;;;;;;22.33;50.06;101258.69;10351646;28;20030;-68
2022/04/21 14:28:40;;;;;;;8.57;4.77;;;;;;;22.41;50.68;101247.81;10351850;28;20105;-72
2022/04/21 14:33:41;;;;;;;9.95;5.35;;;;;;;21.94;50.59;101237.88;10350902;28;20411;-70
2022/04/21 14:44:07;;;;;;;8.27;5.30;;;;;;;21.93;49.97;101227.00;10350364;28;20061;-69
2022/04/21 14:49:11;;;;;;;6.20;4.97;;;;;;;20.84;52.74;101238.44;10349471;28;20034;-68
2022/04/21 14:54:11;;;;;;;8.30;5.30;;;;;;;20.46;53.57;101225.50;10349942;28;20042;-68
2022/04/21 14:59:12;;;;;;;8.98;5.68;;;;;;;20.12;54.35;101251.09;10350173;28;20030;-66
2022/04/21 15:04:12;;;;;;;5.97;4.30;;;;;;;19.81;55.00;101256.44;10350878;28;20125;-66
2022/04/21 15:09:13;;;;;;;11.60;5.72;;;;;;;19.47;54.93;101191.38;10334784;28;20043;-83
2022/04/21 15:14:13;;;;;;;7.28;5.88;;;;;;;19.49;56.84;101233.78;10363174;28;20089;-68
2022/04/21 15:19:14;;;;;;;9.15;6.35;;;;;;;19.35;58.02;101252.47;10383698;28;20049;-70
2022/04/21 15:24:14;;;;;;;9.60;6.97;;;;;;;18.76;59.89;101249.13;10391640;28;20034;-71
2022/04/21 15:29:15;;;;;;;8.02;6.38;;;;;;;18.23;61.18;101230.59;10389197;28;20026;-69
2022/04/21 15:34:16;;;;;;;10.55;6.45;;;;;;;18.38;62.05;101243.50;10388896;28;20030;-72
2022/04/21 15:39:16;;;;;;;11.82;7.70;;;;;;;18.35;62.69;101244.94;10389441;28;20021;-74
2022/04/21 15:44:17;;;;;;;11.63;7.00;;;;;;;18.32;63.31;101251.09;10355364;28;20042;-72
2022/04/21 15:49:17;;;;;;;10.27;7.45;;;;;;;18.11;64.44;101232.97;10347229;28;20034;-74
2022/04/21 15:59:36;;;;;;;14.13;7.82;;;;;;;17.34;68.38;101265.16;10347642;28;20034;-70
2022/04/21 16:04:37;;;;;;;10.18;7.32;;;;;;;16.94;68.17;101249.56;10345808;28;20046;-70
2022/04/21 16:09:37;;;;;;;10.32;7.18;;;;;;;16.90;70.13;101259.63;10347460;28;20033;-70
2022/04/21 16:14:38;;;;;;;10.77;7.43;;;;;;;16.81;68.42;101244.66;10345756;28;20046;-72
2022/04/21 16:19:38;;;;;;;9.23;6.60;;;;;;;16.82;68.19;101257.44;10346489;28;20053;-69
2022/04/21 16:24:40;;;;;;;8.45;6.10;;;;;;;16.57;67.94;101255.59;10345896;28;20466;-70
2022/04/21 16:29:40;;;;;;;6.97;5.43;;;;;;;16.24;67.15;101253.22;10332734;28;20123;-71
2022/04/21 16:34:41;;;;;;;10.65;6.32;;;;;;;16.14;69.10;101269.91;10307110;28;20085;-71
2022/04/21 16:39:41;;;;;;;11.88;7.40;;;;;;;15.82;70.84;101256.41;10306780;28;20033;-71
2022/04/21 16:44:42;;;;;;;12.93;7.13;;;;;;;15.48;72.77;101263.34;10306489;28;20046;-71
2022/04/21 16:49:44;;;;;;;8.18;5.68;;;;;;;15.19;73.88;101271.34;10306206;28;20062;-71
2022/04/21 16:54:45;;;;;;;11.32;6.28;;;;;;;15.01;75.89;101280.22;10307453;28;20455;-73
2022/04/21 16:59:45;;;;;;;8.98;6.32;;;;;;;14.60;76.18;101258.75;10306154;28;20027;-73
2022/04/21 17:04:46;;;;;;;8.40;5.68;;;;;;;14.35;78.30;101255.88;10304707;28;20544;-73
2022/04/21 17:09:46;;;;;;;10.75;6.90;;;;;;;14.29;80.93;101275.22;10307759;28;20037;-73
2022/04/21 17:14:46;;;;;;;9.00;6.18;;;;;;;14.20;79.69;101270.47;10312723;28;20055;-76
2022/04/21 17:19:47;;;;;;;9.38;6.90;;;;;;;14.04;81.26;101272.34;10306517;28;20031;-76
2022/04/21 17:24:47;;;;;;;9.32;6.97;;;;;;;13.97;82.53;101282.78;10306079;28;20039;-76
2022/04/21 17:29:48;;;;;;;8.63;6.07;;;;;;;13.78;83.70;101279.63;10305758;28;20050;-76
2022/04/21 17:34:49;;;;;;;10.80;6.53;;;;;;;13.77;84.81;101286.28;10305810;28;20034;-76
2022/04/21 17:39:49;;;;;;;10.35;6.57;;;;;;;13.65;85.84;101287.28;10304549;28;20039;-77
2022/04/21 17:44:49;;;;;;;9.20;6.22;;;;;;;13.55;86.02;101297.44;10305696;28;20042;-77
2022/04/21 17:49:50;;;;;;;8.27;6.00;;;;;;;13.42;87.95;101287.66;10337871;28;20077;-75
2022/04/21 17:54:50;;;;;;;9.60;6.22;;;;;;;13.35;87.88;101300.84;10353256;28;20027;-74
2022/04/21 17:59:52;;;;;;;9.45;5.55;;;;;;;13.24;89.85;101295.19;10352208;28;20018;-74
2022/04/21 18:04:53;;;;;;;9.52;6.43;;;;;;;12.86;89.55;101246.47;10352664;28;20102;-74
2022/04/21 18:09:53;;;;;;;11.57;6.88;;;;;;;12.81;91.98;101254.69;10353082;28;20037;-76
2022/04/21 18:14:54;;;;;;;9.35;6.05;;;;;;;12.96;92.67;101278.88;10352272;28;20054;-77
2022/04/21 18:19:54;;;;;;;8.95;5.78;;;;;;;12.86;92.13;101282.38;10352533;28;20038;-77
2022/04/21 18:24:55;;;;;;;8.48;5.28;;;;;;;12.81;93.32;101291.44;10351213;28;20038;-74
2022/04/21 18:29:56;;;;;;;7.82;4.93;;;;;;;12.72;92.35;101296.59;10351088;28;20078;-75
2022/04/21 18:34:56;;;;;;;6.68;4.88;;;;;;;12.58;93.05;101272.38;10350519;28;20049;-75
2022/04/21 18:39:57;;;;;;;8.05;4.55;;;;;;;12.55;94.79;101290.31;10351865;28;20030;-75
2022/04/21 18:44:59;;;;;;;8.07;5.05;;;;;;;12.52;95.19;101291.63;10352241;28;20030;-75
2022/04/21 18:50:00;;;;;;;7.05;4.88;;;;;;;12.47;96.35;101283.31;10351169;28;20030;-75
2022/04/21 18:55:00;;;;;;;9.85;5.18;;;;;;;12.38;97.63;101281.25;10351585;28;20403;-76
2022/04/21 19:00:01;;;;;;;7.57;5.63;;;;;;;12.11;99.53;101251.63;10351462;28;20118;-75
2022/04/21 19:05:02;;;;;;;9.52;4.75;;;;;;;12.25;100.00;101290.75;10350287;28;20049;-76
2022/04/21 19:10:03;;;;;;;10.35;5.93;;;;;;;12.24;100.00;101294.59;10351377;28;20038;-76
2022/04/21 19:15:04;;;;;;;7.70;5.10;;;;;;;12.20;100.00;101287.94;10350998;28;20046;-76
2022/04/21 19:20:13;;;;;;;11.07;6.05;;;;;;;12.15;100.00;101280.38;10351228;28;20058;-75
2022/04/21 19:25:14;;;;;;;11.85;5.45;;;;;;;12.17;100.00;101285.66;10348686;28;20076;-75
2022/04/21 19:30:15;;;;;;;8.80;6.15;;;;;;;12.11;100.00;101273.69;10349958;28;20392;-76
2022/04/21 19:35:16;;;;;;;12.90;6.18;;;;;;;12.06;100.00;101268.13;10350269;28;20102;-76
2022/04/21 19:40:17;;;;;;;9.98;5.40;;;;;;;12.04;100.00;101273.06;10350004;28;20057;-74
2022/04/21 19:45:17;;;;;;;11.38;4.90;;;;;;;11.90;100.00;101243.06;10349140;28;20038;-75
2022/04/21 19:50:21;;;;;;;8.50;5.25;;;;;;;11.96;100.00;101259.69;10315732;28;20026;-75
2022/04/21 19:55:22;;;;;;;11.32;5.32;;;;;;;11.95;100.00;101274.56;10347728;28;20026;-74
2022/04/21 20:00:22;;;;;;;10.30;5.55;;;;;;;11.99;100.00;101272.97;10329098;28;20018;-76
2022/04/21 20:10:42;;;;;;;10.50;5.18;;;;;;;11.94;100.00;101278.44;10333575;28;20034;-74
2022/04/21 20:15:42;;;;;;;8.20;5.35;;;;;;;11.82;100.00;101271.06;10328778;28;20043;-75
2022/04/21 20:31:21;;;;;;;9.15;5.15;;;;;;;11.57;100.00;101267.91;10344490;28;20026;-75
2022/04/21 20:36:21;;;;;;;10.50;5.05;;;;;;;11.52;100.00;101277.78;10331730;28;20027;-75
2022/04/21 20:41:22;;;;;;;10.25;5.57;;;;;;;11.45;100.00;101270.75;10306833;28;20038;-75
2022/04/21 20:46:22;;;;;;;6.85;4.75;;;;;;;11.39;100.00;101275.34;10305133;28;20057;-75
2022/04/21 20:51:25;;;;;;;11.07;6.28;;;;;;;11.22;100.00;101283.59;10304856;28;20411;-75
2022/04/21 20:56:26;;;;;;;8.73;4.40;;;;;;;11.18;100.00;101287.94;10305505;28;20030;-75
2022/04/21 21:01:26;;;;;;;8.23;5.07;;;;;;;10.97;100.00;101269.38;10307184;28;20031;-76
2022/04/21 21:11:48;;;;;;;5.13;3.63;;;;;;;10.89;100.00;101289.88;10306829;28;20546;-76
2022/04/21 21:16:49;;;;;;;10.20;4.43;;;;;;;10.92;100.00;101297.66;10306259;28;20138;-76
2022/04/21 21:21:49;;;;;;;6.55;3.90;;;;;;;10.89;100.00;101300.88;10306231;28;20495;-76
2022/04/21 21:26:50;;;;;;;7.25;4.22;;;;;;;10.89;100.00;101295.38;10305853;28;20444;-75
2022/04/21 21:31:50;;;;;;;7.30;4.53;;;;;;;10.88;100.00;101305.56;10306741;28;20027;-75
2022/04/21 21:36:51;;;;;;;12.02;4.82;;;;;;;10.85;100.00;101305.22;10306745;28;20042;-75
2022/04/21 21:41:51;;;;;;;7.72;3.92;;;;;;;10.84;100.00;101309.06;10305939;28;20047;-76
2022/04/21 21:46:52;;;;;;;8.95;4.65;;;;;;;10.77;100.00;101297.34;10304884;28;20030;-76
2022/04/21 21:57:11;;;;;;;8.77;4.43;;;;;;;10.85;100.00;101305.22;10310233;28;20031;-76
2022/04/21 22:02:11;;;;;;;11.65;4.75;;;;;;;10.68;100.00;101283.97;10310984;28;20329;-75
2022/04/21 22:07:12;;;;;;;9.98;4.20;;;;;;;10.66;100.00;101286.13;10321065;28;20041;-75
2022/04/21 22:12:13;;;;;;;10.77;5.18;;;;;;;10.68;100.00;101297.72;10303923;28;20031;-75
2022/04/21 22:17:13;;;;;;;9.70;4.75;;;;;;;10.57;100.00;101298.63;10319777;28;20050;-75
2022/04/21 22:22:14;;;;;;;13.70;6.50;;;;;;;10.36;100.00;101307.53;10306127;28;20050;-75
2022/04/21 22:27:14;;;;;;;14.55;6.07;;;;;;;10.28;100.00;101312.28;10344310;28;20035;-74
2022/04/21 22:32:15;;;;;;;10.60;6.57;;;;;;;10.14;100.00;101310.03;10346146;28;20065;-75
2022/04/21 22:37:15;;;;;;;11.30;6.07;;;;;;;9.99;100.00;101321.53;10347170;28;20051;-75
2022/04/21 22:42:18;;;;;;;15.02;5.80;;;;;;;9.76;100.00;101298.47;10350519;28;20243;-74
2022/04/21 22:47:20;;;;;;;12.70;6.13;;;;;;;9.83;100.00;101321.16;10309243;28;20509;-75
2022/04/21 22:52:20;;;;;;;10.68;6.10;;;;;;;9.82;100.00;101300.25;10311164;28;20116;-75
2022/04/21 22:57:21;;;;;;;12.13;7.22;;;;;;;9.82;100.00;101297.50;10311908;28;20031;-75
2022/04/21 23:02:21;;;;;;;11.60;6.43;;;;;;;9.92;100.00;101301.56;10310258;28;20031;-74
2022/04/21 23:07:22;;;;;;;13.30;6.28;;;;;;;9.73;100.00;101273.34;10326369;28;20129;-75
2022/04/21 23:17:45;;;;;;;13.18;6.82;;;;;;;9.04;100.00;101205.19;10310724;28;20047;-74
2022/04/21 23:22:46;;;;;;;13.93;5.72;;;;;;;9.03;100.00;101251.03;10310953;28;20054;-75
2022/04/21 23:27:47;;;;;;;13.93;6.22;;;;;;;9.20;100.00;101270.44;10337028;28;20037;-75
2022/04/21 23:32:48;;;;;;;15.23;7.22;;;;;;;9.23;100.00;101280.09;10349282;28;20422;-75
2022/04/21 23:43:07;;;;;;;12.25;6.30;;;;;;;9.11;100.00;101273.75;10348572;28;20034;-76
2022/04/21 23:48:08;;;;;;;10.52;6.30;;;;;;;8.95;100.00;101281.59;10348758;28;20026;-75
2022/04/21 23:53:08;;;;;;;13.60;6.43;;;;;;;8.85;100.00;101265.66;10348333;28;20034;-74
2022/04/21 23:58:09;;;;;;;17.45;7.88;;;;;;;8.77;100.00;101273.41;10333008;28;20058;-74
